sensor_id;sensor_type;location;lat;lon;timestamp;pressure;altitude;pressure_sealevel;temperature;humidity
48668;BME280;34453;52.198;5.004;2023-03-04T00:01:24;102865.25;;;5.19;100.00
48668;BME280;34453;52.198;5.004;2023-03-04T00:03:49;102864.59;;;5.14;100.00
48668;BME280;34453;52.198;5.004;2023-03-04T00:06:15;102869.00;;;5.12;100.00
48668;BME280;34453;52.198;5.004;2023-03-04T00:08:40;102871.41;;;5.16;100.00
48668;BME280;34453;52.198;5.004;2023-03-04T00:11:06;102869.66;;;5.17;100.00
48668;BME280;34453;52.198;5.004;2023-03-04T00:13:31;102872.13;;;5.20;100.00
48668;BME280;34453;52.198;5.004;2023-03-04T00:15:57;102871.38;;;5.18;100.00
48668;BME280;34453;52.198;5.004;2023-03-04T00:18:22;102867.72;;;5.22;100.00
48668;BME280;34453;52.198;5.004;2023-03-04T00:20:48;102873.09;;;5.17;100.00
48668;BME280;34453;52.198;5.004;2023-03-04T00:23:15;102863.69;;;5.15;100.00
48668;BME280;34453;52.198;5.004;2023-03-04T00:25:40;102867.91;;;5.17;100.00
48668;BME280;34453;52.198;5.004;2023-03-04T00:28:06;102870.31;;;5.22;100.00
48668;BME280;34453;52.198;5.004;2023-03-04T00:30:31;102865.03;;;5.25;100.00
48668;BME280;34453;52.198;5.004;2023-03-04T00:32:57;102873.00;;;5.21;100.00
48668;BME280;34453;52.198;5.004;2023-03-04T00:35:22;102873.06;;;5.19;100.00
48668;BME280;34453;52.198;5.004;2023-03-04T00:37:48;102869.63;;;5.18;100.00
48668;BME280;34453;52.198;5.004;2023-03-04T00:40:13;102875.69;;;5.17;100.00
48668;BME280;34453;52.198;5.004;2023-03-04T00:42:39;102868.06;;;5.13;100.00
48668;BME280;34453;52.198;5.004;2023-03-04T00:45:05;102874.91;;;5.15;100.00
48668;BME280;34453;52.198;5.004;2023-03-04T00:47:30;102871.28;;;5.19;100.00
48668;BME280;34453;52.198;5.004;2023-03-04T00:49:56;102867.06;;;5.17;100.00
48668;BME280;34453;52.198;5.004;2023-03-04T00:52:21;102872.22;;;5.18;100.00
48668;BME280;34453;52.198;5.004;2023-03-04T00:54:47;102873.97;;;5.18;100.00
48668;BME280;34453;52.198;5.004;2023-03-04T00:57:12;102867.81;;;5.21;100.00
48668;BME280;34453;52.198;5.004;2023-03-04T00:59:38;102877.09;;;5.26;100.00
48668;BME280;34453;52.198;5.004;2023-03-04T01:02:05;102866.00;;;5.23;100.00
48668;BME280;34453;52.198;5.004;2023-03-04T01:04:31;102875.66;;;5.19;100.00
48668;BME280;34453;52.198;5.004;2023-03-04T01:06:56;102874.84;;;5.17;100.00
48668;BME280;34453;52.198;5.004;2023-03-04T01:09:22;102872.13;;;5.20;100.00
48668;BME280;34453;52.198;5.004;2023-03-04T01:11:47;102877.56;;;5.14;100.00
48668;BME280;34453;52.198;5.004;2023-03-04T01:14:13;102873.97;;;5.18;100.00
48668;BME280;34453;52.198;5.004;2023-03-04T01:16:38;102870.56;;;5.16;100.00
48668;BME280;34453;52.198;5.004;2023-03-04T01:19:03;102870.44;;;5.19;100.00
48668;BME280;34453;52.198;5.004;2023-03-04T01:21:29;102870.44;;;5.19;100.00
48668;BME280;34453;52.198;5.004;2023-03-04T01:23:54;102856.81;;;5.14;100.00
48668;BME280;34453;52.198;5.004;2023-03-04T01:26:20;102861.88;;;5.17;100.00
48668;BME280;34453;52.198;5.004;2023-03-04T01:28:46;102856.06;;;5.10;100.00
48668;BME280;34453;52.198;5.004;2023-03-04T01:31:11;102851.78;;;5.09;100.00
48668;BME280;34453;52.198;5.004;2023-03-04T01:33:37;102854.31;;;5.11;100.00
48668;BME280;34453;52.198;5.004;2023-03-04T01:36:02;102850.84;;;5.12;100.00
48668;BME280;34453;52.198;5.004;2023-03-04T01:38:28;102846.31;;;5.17;100.00
48668;BME280;34453;52.198;5.004;2023-03-04T01:40:53;102850.00;;;5.11;100.00
48668;BME280;34453;52.198;5.004;2023-03-04T01:43:26;102844.06;;;5.08;100.00
48668;BME280;34453;52.198;5.004;2023-03-04T01:45:53;102849.38;;;5.05;100.00
48668;BME280;34453;52.198;5.004;2023-03-04T01:48:25;102843.31;;;5.04;100.00
48668;BME280;34453;52.198;5.004;2023-03-04T01:50:51;102847.72;;;5.02;100.00
48668;BME280;34453;52.198;5.004;2023-03-04T01:53:22;102840.88;;;4.99;100.00
48668;BME280;34453;52.198;5.004;2023-03-04T01:55:48;102828.66;;;5.03;100.00
48668;BME280;34453;52.198;5.004;2023-03-04T01:58:14;102820.66;;;5.09;100.00
48668;BME280;34453;52.198;5.004;2023-03-04T02:00:40;102835.94;;;5.17;100.00
48668;BME280;34453;52.198;5.004;2023-03-04T02:03:11;102824.09;;;5.10;100.00
48668;BME280;34453;52.198;5.004;2023-03-04T02:05:43;102811.16;;;5.08;100.00
48668;BME280;34453;52.198;5.004;2023-03-04T02:08:11;102804.34;;;5.06;100.00
48668;BME280;34453;52.198;5.004;2023-03-04T02:10:38;102810.31;;;5.08;100.00
48668;BME280;34453;52.198;5.004;2023-03-04T02:13:04;102808.53;;;5.10;100.00
48668;BME280;34453;52.198;5.004;2023-03-04T02:15:30;102798.25;;;5.07;100.00
48668;BME280;34453;52.198;5.004;2023-03-04T02:17:56;102794.13;;;5.01;100.00
48668;BME280;34453;52.198;5.004;2023-03-04T02:23:08;102795.66;;;5.07;100.00
48668;BME280;34453;52.198;5.004;2023-03-04T02:25:42;102794.09;;;5.03;100.00
48668;BME280;34453;52.198;5.004;2023-03-04T02:28:09;102789.91;;;4.98;100.00
48668;BME280;34453;52.198;5.004;2023-03-04T02:30:34;102786.41;;;4.99;100.00
48668;BME280;34453;52.198;5.004;2023-03-04T02:33:00;102789.09;;;4.98;100.00
48668;BME280;34453;52.198;5.004;2023-03-04T02:35:26;102781.84;;;5.06;100.00
48668;BME280;34453;52.198;5.004;2023-03-04T02:37:51;102781.28;;;4.98;100.00
48668;BME280;34453;52.198;5.004;2023-03-04T02:40:36;102776.03;;;4.99;100.00
48668;BME280;34453;52.198;5.004;2023-03-04T02:43:03;102769.97;;;5.01;100.00
48668;BME280;34453;52.198;5.004;2023-03-04T02:45:37;102772.66;;;4.97;100.00
48668;BME280;34453;52.198;5.004;2023-03-04T02:48:04;102768.81;;;5.08;100.00
48668;BME280;34453;52.198;5.004;2023-03-04T02:50:33;102761.91;;;5.07;100.00
48668;BME280;34453;52.198;5.004;2023-03-04T02:52:59;102761.22;;;5.03;100.00
48668;BME280;34453;52.198;5.004;2023-03-04T02:55:24;102775.69;;;5.09;100.00
48668;BME280;34453;52.198;5.004;2023-03-04T02:57:50;102764.81;;;4.99;100.00
48668;BME280;34453;52.198;5.004;2023-03-04T03:00:15;102763.84;;;5.02;100.00
48668;BME280;34453;52.198;5.004;2023-03-04T03:02:41;102761.22;;;5.03;100.00
48668;BME280;34453;52.198;5.004;2023-03-04T03:05:07;102763.06;;;4.99;100.00
48668;BME280;34453;52.198;5.004;2023-03-04T03:07:32;102766.63;;;4.97;100.00
48668;BME280;34453;52.198;5.004;2023-03-04T03:09:59;102758.72;;;5.00;100.00
48668;BME280;34453;52.198;5.004;2023-03-04T03:12:25;102753.47;;;5.02;100.00
48668;BME280;34453;52.198;5.004;2023-03-04T03:14:51;102762.09;;;5.02;100.00
48668;BME280;34453;52.198;5.004;2023-03-04T03:17:16;102756.97;;;5.01;100.00
48668;BME280;34453;52.198;5.004;2023-03-04T03:19:42;102753.59;;;4.98;100.00
48668;BME280;34453;52.198;5.004;2023-03-04T03:22:07;102763.84;;;5.02;100.00
48668;BME280;34453;52.198;5.004;2023-03-04T03:24:33;102758.44;;;5.08;100.00
48668;BME280;34453;52.198;5.004;2023-03-04T03:26:58;102753.38;;;5.05;100.00
48668;BME280;34453;52.198;5.004;2023-03-04T03:29:23;102746.47;;;5.04;100.00
48668;BME280;34453;52.198;5.004;2023-03-04T03:31:49;102746.44;;;5.05;100.00
48668;BME280;34453;52.198;5.004;2023-03-04T03:34:14;102743.84;;;5.05;100.00
48668;BME280;34453;52.198;5.004;2023-03-04T03:36:40;102757.66;;;5.06;100.00
48668;BME280;34453;52.198;5.004;2023-03-04T03:39:05;102748.09;;;5.06;100.00
48668;BME280;34453;52.198;5.004;2023-03-04T03:41:30;102744.53;;;5.09;100.00
48668;BME280;34453;52.198;5.004;2023-03-04T03:43:56;102747.13;;;5.09;100.00
48668;BME280;34453;52.198;5.004;2023-03-04T03:46:21;102755.06;;;5.06;100.00
48668;BME280;34453;52.198;5.004;2023-03-04T03:48:47;102758.56;;;5.05;100.00
48668;BME280;34453;52.198;5.004;2023-03-04T03:51:12;102753.53;;;5.00;100.00
48668;BME280;34453;52.198;5.004;2023-03-04T03:53:37;102748.19;;;5.05;100.00
48668;BME280;34453;52.198;5.004;2023-03-04T03:56:03;102746.47;;;5.04;100.00
48668;BME280;34453;52.198;5.004;2023-03-04T03:58:29;102751.00;;;4.98;100.00
48668;BME280;34453;52.198;5.004;2023-03-04T04:00:54;102750.00;;;5.03;100.00
48668;BME280;34453;52.198;5.004;2023-03-04T04:03:20;102757.03;;;4.99;100.00
48668;BME280;34453;52.198;5.004;2023-03-04T04:05:45;102748.22;;;5.03;100.00
48668;BME280;34453;52.198;5.004;2023-03-04T04:08:15;102745.81;;;4.98;100.00
48668;BME280;34453;52.198;5.004;2023-03-04T04:10:42;102755.41;;;4.96;100.00
48668;BME280;34453;52.198;5.004;2023-03-04T04:13:08;102757.22;;;4.94;100.00
48668;BME280;34453;52.198;5.004;2023-03-04T04:15:33;102753.78;;;4.94;100.00
48668;BME280;34453;52.198;5.004;2023-03-04T04:17:59;102758.78;;;4.98;100.00
48668;BME280;34453;52.198;5.004;2023-03-04T04:20:24;102752.91;;;4.93;100.00
48668;BME280;34453;52.198;5.004;2023-03-04T04:22:49;102752.91;;;4.93;100.00
48668;BME280;34453;52.198;5.004;2023-03-04T04:25:15;102761.22;;;5.03;100.00
48668;BME280;34453;52.198;5.004;2023-03-04T04:27:40;102753.53;;;5.00;100.00
48668;BME280;34453;52.198;5.004;2023-03-04T04:30:06;102756.97;;;5.01;100.00
48668;BME280;34453;52.198;5.004;2023-03-04T04:32:32;102756.28;;;4.95;100.00
48668;BME280;34453;52.198;5.004;2023-03-04T04:34:58;102758.88;;;4.95;100.00
48668;BME280;34453;52.198;5.004;2023-03-04T04:37:23;102755.34;;;4.98;100.00
48668;BME280;34453;52.198;5.004;2023-03-04T04:39:48;102758.00;;;4.96;100.00
48668;BME280;34453;52.198;5.004;2023-03-04T04:42:15;102755.41;;;4.96;100.00
48668;BME280;34453;52.198;5.004;2023-03-04T04:44:41;102761.38;;;4.98;100.00
48668;BME280;34453;52.198;5.004;2023-03-04T04:47:06;102753.66;;;4.97;100.00
48668;BME280;34453;52.198;5.004;2023-03-04T04:49:32;102756.25;;;4.97;100.00
48668;BME280;34453;52.198;5.004;2023-03-04T04:52:00;102751.88;;;4.97;100.00
48668;BME280;34453;52.198;5.004;2023-03-04T04:54:25;102759.75;;;4.96;100.00
48668;BME280;34453;52.198;5.004;2023-03-04T04:56:51;102751.06;;;4.97;100.00
48668;BME280;34453;52.198;5.004;2023-03-04T04:59:19;102746.84;;;4.94;100.00
48668;BME280;34453;52.198;5.004;2023-03-04T05:01:45;102753.66;;;4.97;100.00
48668;BME280;34453;52.198;5.004;2023-03-04T05:04:10;102750.09;;;4.99;100.00
48668;BME280;34453;52.198;5.004;2023-03-04T05:06:36;102757.03;;;4.99;100.00
48668;BME280;34453;52.198;5.004;2023-03-04T05:09:01;102758.03;;;4.95;100.00
48668;BME280;34453;52.198;5.004;2023-03-04T05:11:27;102763.13;;;4.98;100.00
48668;BME280;34453;52.198;5.004;2023-03-04T05:13:52;102755.41;;;4.96;100.00
48668;BME280;34453;52.198;5.004;2023-03-04T05:16:18;102758.88;;;4.95;100.00
48668;BME280;34453;52.198;5.004;2023-03-04T05:18:44;102768.38;;;4.96;100.00
48668;BME280;34453;52.198;5.004;2023-03-04T05:21:09;102769.25;;;4.95;100.00
48668;BME280;34453;52.198;5.004;2023-03-04T05:23:37;102764.94;;;4.96;100.00
48668;BME280;34453;52.198;5.004;2023-03-04T05:26:04;102775.38;;;4.94;100.00
48668;BME280;34453;52.198;5.004;2023-03-04T05:28:31;102770.13;;;4.96;100.00
48668;BME280;34453;52.198;5.004;2023-03-04T05:30:56;102774.56;;;4.92;100.00
48668;BME280;34453;52.198;5.004;2023-03-04T05:33:22;102782.34;;;4.92;100.00
48668;BME280;34453;52.198;5.004;2023-03-04T05:35:47;102780.09;;;4.83;100.00
48668;BME280;34453;52.198;5.004;2023-03-04T05:38:15;102778.53;;;4.79;100.00
48668;BME280;34453;52.198;5.004;2023-03-04T05:40:41;102788.22;;;4.74;100.00
48668;BME280;34453;52.198;5.004;2023-03-04T05:43:07;102783.03;;;4.74;100.00
48668;BME280;34453;52.198;5.004;2023-03-04T05:45:33;102773.69;;;4.70;100.00
48668;BME280;34453;52.198;5.004;2023-03-04T05:47:59;102777.72;;;4.77;100.00
48668;BME280;34453;52.198;5.004;2023-03-04T05:50:25;102771.75;;;4.75;100.00
48668;BME280;34453;52.198;5.004;2023-03-04T05:52:50;102771.75;;;4.75;100.00
48668;BME280;34453;52.198;5.004;2023-03-04T05:55:16;102772.59;;;4.75;100.00
48668;BME280;34453;52.198;5.004;2023-03-04T05:57:42;102773.38;;;4.77;100.00
48668;BME280;34453;52.198;5.004;2023-03-04T06:00:08;102770.06;;;4.74;100.00
48668;BME280;34453;52.198;5.004;2023-03-04T06:02:35;102769.91;;;4.78;100.00
48668;BME280;34453;52.198;5.004;2023-03-04T06:05:01;102766.53;;;4.76;100.00
48668;BME280;34453;52.198;5.004;2023-03-04T06:07:26;102769.94;;;4.77;100.00
48668;BME280;34453;52.198;5.004;2023-03-04T06:09:52;102759.44;;;4.80;100.00
48668;BME280;34453;52.198;5.004;2023-03-04T06:12:17;102762.63;;;4.88;100.00
48668;BME280;34453;52.198;5.004;2023-03-04T06:14:42;102755.84;;;4.84;100.00
48668;BME280;34453;52.198;5.004;2023-03-04T06:17:08;102758.44;;;4.84;100.00
48668;BME280;34453;52.198;5.004;2023-03-04T06:19:36;102762.78;;;4.84;100.00
48668;BME280;34453;52.198;5.004;2023-03-04T06:22:03;102751.56;;;4.83;100.00
48668;BME280;34453;52.198;5.004;2023-03-04T06:24:31;102763.75;;;4.81;100.00
48668;BME280;34453;52.198;5.004;2023-03-04T06:26:56;102760.38;;;4.79;100.00
48668;BME280;34453;52.198;5.004;2023-03-04T06:29:22;102763.81;;;4.80;100.00
48668;BME280;34453;52.198;5.004;2023-03-04T06:31:47;102765.56;;;4.79;100.00
48668;BME280;34453;52.198;5.004;2023-03-04T06:34:13;102780.16;;;4.82;100.00
48668;BME280;34453;52.198;5.004;2023-03-04T06:36:38;102768.09;;;4.81;100.00
48668;BME280;34453;52.198;5.004;2023-03-04T06:39:05;102778.31;;;4.85;100.00
48668;BME280;34453;52.198;5.004;2023-03-04T06:41:30;102779.16;;;4.86;100.00
48668;BME280;34453;52.198;5.004;2023-03-04T06:43:56;102782.41;;;4.91;100.00
48668;BME280;34453;52.198;5.004;2023-03-04T06:46:22;102782.34;;;4.92;100.00
48668;BME280;34453;52.198;5.004;2023-03-04T06:48:47;102787.66;;;4.89;100.00
48668;BME280;34453;52.198;5.004;2023-03-04T06:51:13;102788.56;;;4.88;100.00
48668;BME280;34453;52.198;5.004;2023-03-04T06:53:39;102787.72;;;4.88;100.00
48668;BME280;34453;52.198;5.004;2023-03-04T06:56:06;102801.53;;;4.88;100.00
48668;BME280;34453;52.198;5.004;2023-03-04T06:58:32;102800.38;;;4.95;100.00
48668;BME280;34453;52.198;5.004;2023-03-04T07:01:11;102797.25;;;4.87;100.00
48668;BME280;34453;52.198;5.004;2023-03-04T07:03:37;102794.75;;;4.84;100.00
48668;BME280;34453;52.198;5.004;2023-03-04T07:06:02;102801.69;;;4.84;100.00
48668;BME280;34453;52.198;5.004;2023-03-04T07:08:28;102798.25;;;4.83;100.00
48668;BME280;34453;52.198;5.004;2023-03-04T07:10:53;102800.84;;;4.83;100.00
48668;BME280;34453;52.198;5.004;2023-03-04T07:13:19;102797.25;;;4.87;100.00
48668;BME280;34453;52.198;5.004;2023-03-04T07:15:44;102799.69;;;4.92;100.00
48668;BME280;34453;52.198;5.004;2023-03-04T07:18:09;102789.78;;;5.02;100.00
48668;BME280;34453;52.198;5.004;2023-03-04T07:20:35;102793.91;;;5.07;100.00
48668;BME280;34453;52.198;5.004;2023-03-04T07:23:01;102798.97;;;5.10;100.00
48668;BME280;34453;52.198;5.004;2023-03-04T07:25:26;102787.53;;;5.16;100.00
48668;BME280;34453;52.198;5.004;2023-03-04T07:27:52;102792.66;;;5.17;100.00
48668;BME280;34453;52.198;5.004;2023-03-04T07:30:18;102795.75;;;5.27;100.00
48668;BME280;34453;52.198;5.004;2023-03-04T07:32:43;102794.78;;;5.30;100.00
48668;BME280;34453;52.198;5.004;2023-03-04T07:35:09;102792.19;;;5.30;100.00
48668;BME280;34453;52.198;5.004;2023-03-04T07:37:34;102790.56;;;5.27;100.00
48668;BME280;34453;52.198;5.004;2023-03-04T07:40:00;102795.41;;;5.36;100.00
48668;BME280;34453;52.198;5.004;2023-03-04T07:42:25;102794.38;;;5.40;100.00
48668;BME280;34453;52.198;5.004;2023-03-04T07:44:52;102787.13;;;5.49;100.00
48668;BME280;34453;52.198;5.004;2023-03-04T07:47:19;102793.00;;;5.54;100.00
48668;BME280;34453;52.198;5.004;2023-03-04T07:49:44;102799.13;;;5.51;100.00
48668;BME280;34453;52.198;5.004;2023-03-04T07:52:10;102799.88;;;5.55;100.00
48668;BME280;34453;52.198;5.004;2023-03-04T07:54:35;102806.63;;;5.59;100.00
48668;BME280;34453;52.198;5.004;2023-03-04T07:57:01;102806.25;;;5.68;100.00
48668;BME280;34453;52.198;5.004;2023-03-04T07:59:26;102799.13;;;5.73;100.00
48668;BME280;34453;52.198;5.004;2023-03-04T08:01:51;102804.88;;;5.81;100.00
48668;BME280;34453;52.198;5.004;2023-03-04T08:04:17;102805.19;;;5.74;100.00
48668;BME280;34453;52.198;5.004;2023-03-04T08:06:42;102803.28;;;5.77;100.00
48668;BME280;34453;52.198;5.004;2023-03-04T08:09:09;102807.59;;;5.78;100.00
48668;BME280;34453;52.198;5.004;2023-03-04T08:11:36;102806.63;;;5.81;100.00
48668;BME280;34453;52.198;5.004;2023-03-04T08:14:02;102803.59;;;5.92;100.00
48668;BME280;34453;52.198;5.004;2023-03-04T08:16:28;102810.25;;;5.99;100.00
48668;BME280;34453;52.198;5.004;2023-03-04T08:18:56;102808.97;;;6.09;100.00
48668;BME280;34453;52.198;5.004;2023-03-04T08:21:23;102808.66;;;6.17;100.00
48668;BME280;34453;52.198;5.004;2023-03-04T08:23:51;102810.16;;;6.22;100.00
48668;BME280;34453;52.198;5.004;2023-03-04T08:26:24;102812.75;;;6.22;100.00
48668;BME280;34453;52.198;5.004;2023-03-04T08:28:52;102814.19;;;6.30;100.00
48668;BME280;34453;52.198;5.004;2023-03-04T08:31:18;102823.44;;;6.35;100.00
48668;BME280;34453;52.198;5.004;2023-03-04T08:33:44;102812.81;;;6.41;100.00
48668;BME280;34453;52.198;5.004;2023-03-04T08:36:11;102813.84;;;6.37;100.00
48668;BME280;34453;52.198;5.004;2023-03-04T08:38:37;102816.78;;;6.30;100.00
48668;BME280;34453;52.198;5.004;2023-03-04T08:41:02;102812.06;;;6.38;100.00
48668;BME280;34453;52.198;5.004;2023-03-04T08:43:28;102809.31;;;6.42;100.00
48668;BME280;34453;52.198;5.004;2023-03-04T08:45:54;102820.66;;;6.40;100.00
48668;BME280;34453;52.198;5.004;2023-03-04T08:48:20;102818.97;;;6.39;100.00
48668;BME280;34453;52.198;5.004;2023-03-04T08:50:46;102819.03;;;6.37;100.00
48668;BME280;34453;52.198;5.004;2023-03-04T08:53:12;102821.72;;;6.36;100.00
48668;BME280;34453;52.198;5.004;2023-03-04T08:55:39;102815.19;;;6.46;100.00
48668;BME280;34453;52.198;5.004;2023-03-04T08:58:05;102814.03;;;6.53;100.00
48668;BME280;34453;52.198;5.004;2023-03-04T09:00:32;102818.69;;;6.66;100.00
48668;BME280;34453;52.198;5.004;2023-03-04T09:02:58;102813.25;;;6.72;100.00
48668;BME280;34453;52.198;5.004;2023-03-04T09:05:23;102810.91;;;6.66;100.00
48668;BME280;34453;52.198;5.004;2023-03-04T09:07:49;102817.50;;;6.54;100.00
48668;BME280;34453;52.198;5.004;2023-03-04T09:10:15;102822.13;;;6.66;100.00
48668;BME280;34453;52.198;5.004;2023-03-04T09:12:40;102818.16;;;6.78;100.00
48668;BME280;34453;52.198;5.004;2023-03-04T09:15:06;102811.47;;;6.91;100.00
48668;BME280;34453;52.198;5.004;2023-03-04T09:17:32;102816.00;;;6.88;100.00
48668;BME280;34453;52.198;5.004;2023-03-04T09:19:57;102812.63;;;6.85;100.00
48668;BME280;34453;52.198;5.004;2023-03-04T09:22:23;102814.66;;;6.98;100.00
48668;BME280;34453;52.198;5.004;2023-03-04T09:24:51;102812.34;;;7.11;100.00
48668;BME280;34453;52.198;5.004;2023-03-04T09:27:16;102813.91;;;7.15;100.00
48668;BME280;34453;52.198;5.004;2023-03-04T09:29:41;102806.00;;;6.97;100.00
48668;BME280;34453;52.198;5.004;2023-03-04T09:32:08;102816.41;;;6.97;100.00
48668;BME280;34453;52.198;5.004;2023-03-04T09:34:34;102805.16;;;6.97;100.00
48668;BME280;34453;52.198;5.004;2023-03-04T09:36:59;102801.38;;;7.04;100.00
48668;BME280;34453;52.198;5.004;2023-03-04T09:39:24;102801.66;;;7.17;100.00
48668;BME280;34453;52.198;5.004;2023-03-04T09:41:53;102806.84;;;7.17;100.00
48668;BME280;34453;52.198;5.004;2023-03-04T09:44:32;102796.59;;;7.14;100.00
48668;BME280;34453;52.198;5.004;2023-03-04T09:47:03;102804.31;;;7.34;100.00
48668;BME280;34453;52.198;5.004;2023-03-04T09:49:30;102808.06;;;7.65;100.00
48668;BME280;34453;52.198;5.004;2023-03-04T09:55:05;102783.72;;;8.18;100.00
48668;BME280;34453;52.198;5.004;2023-03-04T09:57:47;102784.47;;;8.20;100.00
48668;BME280;34453;52.198;5.004;2023-03-04T10:00:25;102784.69;;;8.33;100.00
48668;BME280;34453;52.198;5.004;2023-03-04T10:03:18;102780.53;;;8.29;100.00
48668;BME280;34453;52.198;5.004;2023-03-04T10:05:58;102772.53;;;8.16;100.00
48668;BME280;34453;52.198;5.004;2023-03-04T10:08:45;102771.00;;;8.12;100.00
48668;BME280;34453;52.198;5.004;2023-03-04T10:16:45;102760.88;;;8.41;100.00
48668;BME280;34453;52.198;5.004;2023-03-04T10:21:43;102758.94;;;8.60;100.00
48668;BME280;34453;52.198;5.004;2023-03-04T10:24:15;102753.31;;;8.52;100.00
48668;BME280;34453;52.198;5.004;2023-03-04T10:26:45;102756.06;;;8.49;100.00
48668;BME280;34453;52.198;5.004;2023-03-04T10:29:18;102760.53;;;8.47;100.00
48668;BME280;34453;52.198;5.004;2023-03-04T10:31:44;102760.97;;;8.38;100.00
48668;BME280;34453;52.198;5.004;2023-03-04T10:34:12;102765.00;;;8.27;100.00
48668;BME280;34453;52.198;5.004;2023-03-04T10:36:52;102755.50;;;8.09;100.00
48668;BME280;34453;52.198;5.004;2023-03-04T10:39:32;102765.63;;;8.15;100.00
48668;BME280;34453;52.198;5.004;2023-03-04T10:42:04;102757.47;;;8.21;100.00
48668;BME280;34453;52.198;5.004;2023-03-04T10:44:32;102756.03;;;8.66;100.00
48668;BME280;34453;52.198;5.004;2023-03-04T10:46:59;102766.66;;;8.79;100.00
48668;BME280;34453;52.198;5.004;2023-03-04T10:49:27;102751.00;;;8.95;100.00
48668;BME280;34453;52.198;5.004;2023-03-04T10:52:11;102752.53;;;8.99;100.00
48668;BME280;34453;52.198;5.004;2023-03-04T10:54:45;102744.69;;;8.83;100.00
48668;BME280;34453;52.198;5.004;2023-03-04T10:57:26;102745.28;;;9.36;100.00
48668;BME280;34453;52.198;5.004;2023-03-04T11:00:46;102737.66;;;9.47;100.00
48668;BME280;34453;52.198;5.004;2023-03-04T11:02:48;102742.06;;;9.31;100.00
48668;BME280;34453;52.198;5.004;2023-03-04T11:07:41;102738.78;;;8.80;100.00
48668;BME280;34453;52.198;5.004;2023-03-04T11:12:40;102751.53;;;8.53;100.00
48668;BME280;34453;52.198;5.004;2023-03-04T11:15:19;102743.66;;;8.37;100.00
48668;BME280;34453;52.198;5.004;2023-03-04T11:17:51;102748.97;;;8.18;100.00
48668;BME280;34453;52.198;5.004;2023-03-04T11:20:32;102746.59;;;8.13;100.00
48668;BME280;34453;52.198;5.004;2023-03-04T11:23:03;102746.91;;;8.07;100.00
48668;BME280;34453;52.198;5.004;2023-03-04T11:25:35;102757.31;;;8.07;100.00
48668;BME280;34453;52.198;5.004;2023-03-04T11:28:12;102755.50;;;8.09;100.00
48668;BME280;34453;52.198;5.004;2023-03-04T11:31:05;102754.13;;;8.02;100.00
48668;BME280;34453;52.198;5.004;2023-03-04T11:39:32;102750.00;;;8.31;100.00
48668;BME280;34453;52.198;5.004;2023-03-04T11:42:06;102749.72;;;8.37;100.00
48668;BME280;34453;52.198;5.004;2023-03-04T11:44:38;102739.00;;;8.59;100.00
48668;BME280;34453;52.198;5.004;2023-03-04T11:52:47;102735.25;;;8.32;100.00
48668;BME280;34453;52.198;5.004;2023-03-04T11:55:43;102736.41;;;7.91;100.00
48668;BME280;34453;52.198;5.004;2023-03-04T12:01:07;102747.06;;;7.69;100.00
48668;BME280;34453;52.198;5.004;2023-03-04T12:03:59;102747.94;;;7.70;100.00
48668;BME280;34453;52.198;5.004;2023-03-04T12:22:45;102728.72;;;6.99;100.00
48668;BME280;34453;52.198;5.004;2023-03-04T12:25:24;102736.72;;;6.95;100.00
48668;BME280;34453;52.198;5.004;2023-03-04T12:31:49;102724.44;;;6.98;100.00
48668;BME280;34453;52.198;5.004;2023-03-04T12:33:54;102722.28;;;7.06;100.00
48668;BME280;34453;52.198;5.004;2023-03-04T12:38:59;102699.41;;;7.13;100.00
48668;BME280;34453;52.198;5.004;2023-03-04T12:41:47;102695.50;;;7.41;100.00
48668;BME280;34453;52.198;5.004;2023-03-04T12:44:19;102685.69;;;8.65;100.00
48668;BME280;34453;52.198;5.004;2023-03-04T12:52:40;102676.75;;;8.85;100.00
48668;BME280;34453;52.198;5.004;2023-03-04T12:55:15;102674.38;;;8.64;100.00
48668;BME280;34453;52.198;5.004;2023-03-04T12:57:42;102664.00;;;8.47;100.00
48668;BME280;34453;52.198;5.004;2023-03-04T13:08:10;102666.84;;;8.09;100.00
48668;BME280;34453;52.198;5.004;2023-03-04T13:10:39;102660.16;;;7.87;100.00
48668;BME280;34453;52.198;5.004;2023-03-04T13:13:05;102675.75;;;7.72;100.00
48668;BME280;34453;52.198;5.004;2023-03-04T13:15:32;102671.84;;;7.63;100.00
48668;BME280;34453;52.198;5.004;2023-03-04T13:18:30;102669.22;;;7.63;100.00
48668;BME280;34453;52.198;5.004;2023-03-04T13:23:41;102662.63;;;7.56;100.00
48668;BME280;34453;52.198;5.004;2023-03-04T13:26:22;102653.91;;;7.57;100.00
48668;BME280;34453;52.198;5.004;2023-03-04T13:28:54;102645.03;;;7.61;100.00
48668;BME280;34453;52.198;5.004;2023-03-04T13:31:56;102649.22;;;7.63;100.00
48668;BME280;34453;52.198;5.004;2023-03-04T13:34:52;102647.31;;;7.67;100.00
48668;BME280;34453;52.198;5.004;2023-03-04T13:42:48;102634.59;;;7.61;100.00
48668;BME280;34453;52.198;5.004;2023-03-04T13:45:35;102637.63;;;7.69;100.00
48668;BME280;34453;52.198;5.004;2023-03-04T13:48:03;102635.84;;;7.54;100.00
48668;BME280;34453;52.198;5.004;2023-03-04T13:50:47;102636.91;;;7.50;100.00
48668;BME280;34453;52.198;5.004;2023-03-04T13:53:25;102640.19;;;7.53;100.00
48668;BME280;34453;52.198;5.004;2023-03-04T13:56:29;102634.75;;;7.58;100.00
48668;BME280;34453;52.198;5.004;2023-03-04T14:04:28;102620.03;;;7.74;100.00
48668;BME280;34453;52.198;5.004;2023-03-04T14:06:56;102620.41;;;7.66;100.00
48668;BME280;34453;52.198;5.004;2023-03-04T14:09:28;102615.28;;;7.65;100.00
48668;BME280;34453;52.198;5.004;2023-03-04T14:11:56;102612.22;;;7.57;100.00
48668;BME280;34453;52.198;5.004;2023-03-04T14:14:26;102624.56;;;7.53;100.00
48668;BME280;34453;52.198;5.004;2023-03-04T14:16:55;102619.75;;;7.45;100.00
48668;BME280;34453;52.198;5.004;2023-03-04T14:19:30;102618.16;;;7.43;100.00